Terminal Aerodrome Forecast
Issued by NWS Lake Charles, LA

Home | Current Version | Previous Version | Text Only | Print | Product List | Glossary On
Versions: 1 2 3 4 5 6 7 8 9 10 11 12 13
000
FTUS44 KLCH 041720
TAFLFT
TAF
KLFT 041720Z 0418/0518 35010KT P6SM -RA BKN007
      TEMPO 0418/0422 4SM -SHRA BR
     FM050100 03011KT 5SM -SHRA BR OVC007=

USA.gov is the U.S. government's official web portal to all federal, state and local government web resources and services.